sensor_id;sensor_type;location;lat;lon;timestamp;temperature;humidity
38209;DHT22;24016;52.102;11.584;2023-08-31T00:01:32;12.10;99.90
38209;DHT22;24016;52.102;11.584;2023-08-31T00:03:59;12.10;99.90
38209;DHT22;24016;52.102;11.584;2023-08-31T00:06:25;12.10;99.90
38209;DHT22;24016;52.102;11.584;2023-08-31T00:08:50;12.10;99.90
38209;DHT22;24016;52.102;11.584;2023-08-31T00:11:16;12.10;99.90
38209;DHT22;24016;52.102;11.584;2023-08-31T00:13:42;12.10;99.90
38209;DHT22;24016;52.102;11.584;2023-08-31T00:16:08;12.10;99.90
38209;DHT22;24016;52.102;11.584;2023-08-31T00:18:35;12.10;99.90
38209;DHT22;24016;52.102;11.584;2023-08-31T00:21:02;12.10;99.90
38209;DHT22;24016;52.102;11.584;2023-08-31T00:23:34;12.10;99.90
38209;DHT22;24016;52.102;11.584;2023-08-31T00:26:02;12.00;99.90
38209;DHT22;24016;52.102;11.584;2023-08-31T00:28:28;12.00;99.90
38209;DHT22;24016;52.102;11.584;2023-08-31T00:30:54;12.00;99.90
38209;DHT22;24016;52.102;11.584;2023-08-31T00:33:19;12.00;99.90
38209;DHT22;24016;52.102;11.584;2023-08-31T00:35:45;12.00;99.90
38209;DHT22;24016;52.102;11.584;2023-08-31T00:38:15;12.00;99.90
38209;DHT22;24016;52.102;11.584;2023-08-31T00:40:41;12.00;99.90
38209;DHT22;24016;52.102;11.584;2023-08-31T00:43:10;12.00;99.90
38209;DHT22;24016;52.102;11.584;2023-08-31T00:45:37;12.00;99.90
38209;DHT22;24016;52.102;11.584;2023-08-31T00:48:04;12.00;99.90
38209;DHT22;24016;52.102;11.584;2023-08-31T00:50:30;11.90;99.90
38209;DHT22;24016;52.102;11.584;2023-08-31T00:52:56;11.90;99.90
38209;DHT22;24016;52.102;11.584;2023-08-31T00:55:22;11.90;99.90
38209;DHT22;24016;52.102;11.584;2023-08-31T00:57:48;11.90;99.90
38209;DHT22;24016;52.102;11.584;2023-08-31T01:00:14;11.90;99.90
38209;DHT22;24016;52.102;11.584;2023-08-31T01:03:01;11.90;99.90
38209;DHT22;24016;52.102;11.584;2023-08-31T01:05:41;11.90;99.90
38209;DHT22;24016;52.102;11.584;2023-08-31T01:11:10;11.70;99.90
38209;DHT22;24016;52.102;11.584;2023-08-31T01:13:41;11.70;99.90
38209;DHT22;24016;52.102;11.584;2023-08-31T01:16:09;11.60;99.90
38209;DHT22;24016;52.102;11.584;2023-08-31T01:18:38;11.60;99.90
38209;DHT22;24016;52.102;11.584;2023-08-31T01:21:12;11.60;99.90
38209;DHT22;24016;52.102;11.584;2023-08-31T01:23:56;11.60;99.90
38209;DHT22;24016;52.102;11.584;2023-08-31T01:26:24;11.60;99.90
38209;DHT22;24016;52.102;11.584;2023-08-31T01:28:51;11.70;99.90
38209;DHT22;24016;52.102;11.584;2023-08-31T01:36:36;11.70;99.90
38209;DHT22;24016;52.102;11.584;2023-08-31T01:39:10;11.80;99.90
38209;DHT22;24016;52.102;11.584;2023-08-31T01:41:38;11.70;99.90
38209;DHT22;24016;52.102;11.584;2023-08-31T01:44:06;11.70;99.90
38209;DHT22;24016;52.102;11.584;2023-08-31T01:46:33;11.70;99.90
38209;DHT22;24016;52.102;11.584;2023-08-31T01:48:59;11.80;99.90
38209;DHT22;24016;52.102;11.584;2023-08-31T01:51:25;11.80;99.90
38209;DHT22;24016;52.102;11.584;2023-08-31T01:53:50;11.80;99.90
38209;DHT22;24016;52.102;11.584;2023-08-31T01:56:17;11.80;99.90
38209;DHT22;24016;52.102;11.584;2023-08-31T01:58:42;11.80;99.90
38209;DHT22;24016;52.102;11.584;2023-08-31T02:01:08;11.80;99.90
38209;DHT22;24016;52.102;11.584;2023-08-31T02:03:33;11.80;99.90
38209;DHT22;24016;52.102;11.584;2023-08-31T02:05:59;11.80;99.90
38209;DHT22;24016;52.102;11.584;2023-08-31T02:08:24;11.90;99.90
38209;DHT22;24016;52.102;11.584;2023-08-31T02:10:50;11.90;99.90
38209;DHT22;24016;52.102;11.584;2023-08-31T02:13:16;11.80;99.90
38209;DHT22;24016;52.102;11.584;2023-08-31T02:15:42;11.80;99.90
38209;DHT22;24016;52.102;11.584;2023-08-31T02:18:07;11.80;99.90
38209;DHT22;24016;52.102;11.584;2023-08-31T02:20:34;11.80;99.90
38209;DHT22;24016;52.102;11.584;2023-08-31T02:22:59;11.80;99.90
38209;DHT22;24016;52.102;11.584;2023-08-31T02:25:25;11.80;99.90
38209;DHT22;24016;52.102;11.584;2023-08-31T02:27:53;11.80;99.90
38209;DHT22;24016;52.102;11.584;2023-08-31T02:30:19;11.80;99.90
38209;DHT22;24016;52.102;11.584;2023-08-31T02:32:44;11.80;99.90
38209;DHT22;24016;52.102;11.584;2023-08-31T02:35:10;11.90;99.90
38209;DHT22;24016;52.102;11.584;2023-08-31T02:37:37;11.80;99.90
38209;DHT22;24016;52.102;11.584;2023-08-31T02:40:04;11.80;99.90
38209;DHT22;24016;52.102;11.584;2023-08-31T02:42:30;11.80;99.90
38209;DHT22;24016;52.102;11.584;2023-08-31T02:44:55;11.80;99.90
38209;DHT22;24016;52.102;11.584;2023-08-31T02:47:21;11.80;99.90
38209;DHT22;24016;52.102;11.584;2023-08-31T02:49:47;11.80;99.90
38209;DHT22;24016;52.102;11.584;2023-08-31T02:52:13;11.80;99.90
38209;DHT22;24016;52.102;11.584;2023-08-31T02:54:39;11.80;99.90
38209;DHT22;24016;52.102;11.584;2023-08-31T02:57:05;11.80;99.90
38209;DHT22;24016;52.102;11.584;2023-08-31T02:59:30;11.70;99.90
38209;DHT22;24016;52.102;11.584;2023-08-31T03:01:56;11.70;99.90
38209;DHT22;24016;52.102;11.584;2023-08-31T03:04:22;11.70;99.90
38209;DHT22;24016;52.102;11.584;2023-08-31T03:06:47;11.70;99.90
38209;DHT22;24016;52.102;11.584;2023-08-31T03:09:13;11.70;99.90
38209;DHT22;24016;52.102;11.584;2023-08-31T03:11:39;11.60;99.90
38209;DHT22;24016;52.102;11.584;2023-08-31T03:14:04;11.70;99.90
38209;DHT22;24016;52.102;11.584;2023-08-31T03:16:30;11.70;99.90
38209;DHT22;24016;52.102;11.584;2023-08-31T03:18:55;11.60;99.90
38209;DHT22;24016;52.102;11.584;2023-08-31T03:21:21;11.60;99.90
38209;DHT22;24016;52.102;11.584;2023-08-31T03:23:47;11.60;99.90
38209;DHT22;24016;52.102;11.584;2023-08-31T03:26:12;11.60;99.90
38209;DHT22;24016;52.102;11.584;2023-08-31T03:28:38;11.60;99.90
38209;DHT22;24016;52.102;11.584;2023-08-31T03:31:06;11.60;99.90
38209;DHT22;24016;52.102;11.584;2023-08-31T03:33:31;11.50;99.90
38209;DHT22;24016;52.102;11.584;2023-08-31T03:36:01;11.50;99.90
38209;DHT22;24016;52.102;11.584;2023-08-31T03:38:30;11.50;99.90
38209;DHT22;24016;52.102;11.584;2023-08-31T03:40:56;11.50;99.90
38209;DHT22;24016;52.102;11.584;2023-08-31T03:43:23;11.50;99.90
38209;DHT22;24016;52.102;11.584;2023-08-31T03:45:48;11.50;99.90
38209;DHT22;24016;52.102;11.584;2023-08-31T03:48:14;11.50;99.90
38209;DHT22;24016;52.102;11.584;2023-08-31T03:50:40;11.50;99.90
38209;DHT22;24016;52.102;11.584;2023-08-31T03:53:06;11.50;99.90
38209;DHT22;24016;52.102;11.584;2023-08-31T03:55:31;11.50;99.90
38209;DHT22;24016;52.102;11.584;2023-08-31T03:57:57;11.40;99.90
38209;DHT22;24016;52.102;11.584;2023-08-31T04:00:23;11.40;99.90
38209;DHT22;24016;52.102;11.584;2023-08-31T04:02:49;11.40;99.90
38209;DHT22;24016;52.102;11.584;2023-08-31T04:05:15;11.30;99.90
38209;DHT22;24016;52.102;11.584;2023-08-31T04:07:41;11.30;99.90
38209;DHT22;24016;52.102;11.584;2023-08-31T04:10:07;11.30;99.90
38209;DHT22;24016;52.102;11.584;2023-08-31T04:12:33;11.30;99.90
38209;DHT22;24016;52.102;11.584;2023-08-31T04:15:00;11.20;99.90
38209;DHT22;24016;52.102;11.584;2023-08-31T04:17:25;11.20;99.90
38209;DHT22;24016;52.102;11.584;2023-08-31T04:19:51;11.20;99.90
38209;DHT22;24016;52.102;11.584;2023-08-31T04:22:17;11.20;99.90
38209;DHT22;24016;52.102;11.584;2023-08-31T04:24:43;11.20;99.90
38209;DHT22;24016;52.102;11.584;2023-08-31T04:27:08;11.20;99.90
38209;DHT22;24016;52.102;11.584;2023-08-31T04:29:34;11.20;99.90
38209;DHT22;24016;52.102;11.584;2023-08-31T04:31:59;11.20;99.90
38209;DHT22;24016;52.102;11.584;2023-08-31T04:34:26;11.20;99.90
38209;DHT22;24016;52.102;11.584;2023-08-31T04:36:52;11.20;99.90
38209;DHT22;24016;52.102;11.584;2023-08-31T04:39:18;11.20;99.90
38209;DHT22;24016;52.102;11.584;2023-08-31T04:41:43;11.20;99.90
38209;DHT22;24016;52.102;11.584;2023-08-31T04:44:09;11.20;99.90
38209;DHT22;24016;52.102;11.584;2023-08-31T04:46:34;11.20;99.90
38209;DHT22;24016;52.102;11.584;2023-08-31T04:49:03;11.20;99.90
38209;DHT22;24016;52.102;11.584;2023-08-31T04:51:33;11.20;99.90
38209;DHT22;24016;52.102;11.584;2023-08-31T04:53:59;11.20;99.90
38209;DHT22;24016;52.102;11.584;2023-08-31T04:56:30;11.20;99.90
38209;DHT22;24016;52.102;11.584;2023-08-31T04:58:57;11.20;99.90
38209;DHT22;24016;52.102;11.584;2023-08-31T05:01:22;11.20;99.90
38209;DHT22;24016;52.102;11.584;2023-08-31T05:03:48;11.20;99.90
38209;DHT22;24016;52.102;11.584;2023-08-31T05:06:13;11.20;99.90
38209;DHT22;24016;52.102;11.584;2023-08-31T05:08:39;11.20;99.90
38209;DHT22;24016;52.102;11.584;2023-08-31T05:11:04;11.20;99.90
38209;DHT22;24016;52.102;11.584;2023-08-31T05:13:30;11.20;99.90
38209;DHT22;24016;52.102;11.584;2023-08-31T05:15:56;11.30;99.90
38209;DHT22;24016;52.102;11.584;2023-08-31T05:18:21;11.30;99.90
38209;DHT22;24016;52.102;11.584;2023-08-31T05:20:47;11.30;99.90
38209;DHT22;24016;52.102;11.584;2023-08-31T05:23:14;11.30;99.90
38209;DHT22;24016;52.102;11.584;2023-08-31T05:25:43;11.40;99.90
38209;DHT22;24016;52.102;11.584;2023-08-31T05:28:09;11.50;99.90
38209;DHT22;24016;52.102;11.584;2023-08-31T05:30:34;11.60;99.90
38209;DHT22;24016;52.102;11.584;2023-08-31T05:33:01;11.70;99.90
38209;DHT22;24016;52.102;11.584;2023-08-31T05:35:26;11.70;99.90
38209;DHT22;24016;52.102;11.584;2023-08-31T05:37:52;11.80;99.90
38209;DHT22;24016;52.102;11.584;2023-08-31T05:40:18;11.90;99.90
38209;DHT22;24016;52.102;11.584;2023-08-31T05:42:44;11.90;99.90
38209;DHT22;24016;52.102;11.584;2023-08-31T05:45:09;12.00;99.90
38209;DHT22;24016;52.102;11.584;2023-08-31T05:47:35;12.10;99.90
38209;DHT22;24016;52.102;11.584;2023-08-31T05:50:01;12.10;99.90
38209;DHT22;24016;52.102;11.584;2023-08-31T05:52:27;12.10;99.90
38209;DHT22;24016;52.102;11.584;2023-08-31T05:54:53;12.20;99.90
38209;DHT22;24016;52.102;11.584;2023-08-31T05:57:22;12.20;99.90
38209;DHT22;24016;52.102;11.584;2023-08-31T05:59:48;12.20;99.90
38209;DHT22;24016;52.102;11.584;2023-08-31T06:02:14;12.10;99.90
38209;DHT22;24016;52.102;11.584;2023-08-31T06:04:40;12.10;99.90
38209;DHT22;24016;52.102;11.584;2023-08-31T06:07:05;12.10;99.90
38209;DHT22;24016;52.102;11.584;2023-08-31T06:09:31;12.10;99.90
38209;DHT22;24016;52.102;11.584;2023-08-31T06:11:56;12.10;99.90
38209;DHT22;24016;52.102;11.584;2023-08-31T06:14:22;12.10;99.90
38209;DHT22;24016;52.102;11.584;2023-08-31T06:16:48;12.10;99.90
38209;DHT22;24016;52.102;11.584;2023-08-31T06:19:13;12.10;99.90
38209;DHT22;24016;52.102;11.584;2023-08-31T06:21:41;12.00;99.90
38209;DHT22;24016;52.102;11.584;2023-08-31T06:24:07;12.00;99.90
38209;DHT22;24016;52.102;11.584;2023-08-31T06:26:35;12.00;99.90
38209;DHT22;24016;52.102;11.584;2023-08-31T06:29:01;12.00;99.90
38209;DHT22;24016;52.102;11.584;2023-08-31T06:31:28;12.00;99.90
38209;DHT22;24016;52.102;11.584;2023-08-31T06:33:54;12.10;99.90
38209;DHT22;24016;52.102;11.584;2023-08-31T06:36:20;12.20;99.90
38209;DHT22;24016;52.102;11.584;2023-08-31T06:38:45;12.30;99.90
38209;DHT22;24016;52.102;11.584;2023-08-31T06:41:11;12.40;99.90
38209;DHT22;24016;52.102;11.584;2023-08-31T06:43:36;12.50;99.90
38209;DHT22;24016;52.102;11.584;2023-08-31T06:46:02;12.60;99.90
38209;DHT22;24016;52.102;11.584;2023-08-31T06:48:28;12.60;99.90
38209;DHT22;24016;52.102;11.584;2023-08-31T06:50:54;12.70;99.90
38209;DHT22;24016;52.102;11.584;2023-08-31T06:53:20;12.70;99.90
38209;DHT22;24016;52.102;11.584;2023-08-31T06:55:46;12.80;99.90
38209;DHT22;24016;52.102;11.584;2023-08-31T06:58:12;12.90;99.90
38209;DHT22;24016;52.102;11.584;2023-08-31T07:00:38;13.00;99.90
38209;DHT22;24016;52.102;11.584;2023-08-31T07:03:04;13.30;99.90
38209;DHT22;24016;52.102;11.584;2023-08-31T07:05:33;13.50;99.90
38209;DHT22;24016;52.102;11.584;2023-08-31T07:08:00;13.80;99.90
38209;DHT22;24016;52.102;11.584;2023-08-31T07:10:27;14.00;99.90
38209;DHT22;24016;52.102;11.584;2023-08-31T07:12:53;14.10;99.90
38209;DHT22;24016;52.102;11.584;2023-08-31T07:15:18;14.20;99.90
38209;DHT22;24016;52.102;11.584;2023-08-31T07:17:44;14.10;99.90
38209;DHT22;24016;52.102;11.584;2023-08-31T07:20:11;14.10;99.90
38209;DHT22;24016;52.102;11.584;2023-08-31T07:22:37;14.00;99.90
38209;DHT22;24016;52.102;11.584;2023-08-31T07:25:04;14.00;99.90
38209;DHT22;24016;52.102;11.584;2023-08-31T07:27:30;14.00;99.90
38209;DHT22;24016;52.102;11.584;2023-08-31T07:29:55;14.10;99.90
38209;DHT22;24016;52.102;11.584;2023-08-31T07:32:21;14.10;99.90
38209;DHT22;24016;52.102;11.584;2023-08-31T07:34:47;14.20;99.90
38209;DHT22;24016;52.102;11.584;2023-08-31T07:37:13;14.30;99.90
38209;DHT22;24016;52.102;11.584;2023-08-31T07:39:39;14.40;99.90
38209;DHT22;24016;52.102;11.584;2023-08-31T07:42:05;14.50;99.90
38209;DHT22;24016;52.102;11.584;2023-08-31T07:44:31;14.60;99.90
38209;DHT22;24016;52.102;11.584;2023-08-31T07:46:56;14.60;99.90
38209;DHT22;24016;52.102;11.584;2023-08-31T07:49:22;14.60;99.90
38209;DHT22;24016;52.102;11.584;2023-08-31T07:51:48;14.70;99.90
38209;DHT22;24016;52.102;11.584;2023-08-31T07:54:23;14.70;99.90
38209;DHT22;24016;52.102;11.584;2023-08-31T07:56:49;14.80;99.90
38209;DHT22;24016;52.102;11.584;2023-08-31T07:59:16;14.90;99.90
38209;DHT22;24016;52.102;11.584;2023-08-31T08:01:41;15.00;99.90
38209;DHT22;24016;52.102;11.584;2023-08-31T08:04:07;15.10;99.90
38209;DHT22;24016;52.102;11.584;2023-08-31T08:06:32;15.20;99.90
38209;DHT22;24016;52.102;11.584;2023-08-31T08:08:58;15.20;99.90
38209;DHT22;24016;52.102;11.584;2023-08-31T08:11:23;15.30;99.90
38209;DHT22;24016;52.102;11.584;2023-08-31T08:13:49;15.50;99.90
38209;DHT22;24016;52.102;11.584;2023-08-31T08:16:15;15.50;99.90
38209;DHT22;24016;52.102;11.584;2023-08-31T08:18:41;15.60;99.90
38209;DHT22;24016;52.102;11.584;2023-08-31T08:21:06;16.00;99.90
38209;DHT22;24016;52.102;11.584;2023-08-31T08:23:32;16.20;99.90
38209;DHT22;24016;52.102;11.584;2023-08-31T08:25:57;16.70;99.90
38209;DHT22;24016;52.102;11.584;2023-08-31T08:28:26;17.30;99.90
38209;DHT22;24016;52.102;11.584;2023-08-31T08:30:52;17.50;99.90
38209;DHT22;24016;52.102;11.584;2023-08-31T08:33:18;18.10;99.90
38209;DHT22;24016;52.102;11.584;2023-08-31T08:35:43;18.50;99.90
38209;DHT22;24016;52.102;11.584;2023-08-31T08:38:09;19.10;99.90
38209;DHT22;24016;52.102;11.584;2023-08-31T08:40:35;19.70;99.90
38209;DHT22;24016;52.102;11.584;2023-08-31T08:43:01;20.20;99.90
38209;DHT22;24016;52.102;11.584;2023-08-31T08:45:31;19.60;99.90
38209;DHT22;24016;52.102;11.584;2023-08-31T08:48:02;19.10;99.90
38209;DHT22;24016;52.102;11.584;2023-08-31T08:50:31;18.70;99.90
38209;DHT22;24016;52.102;11.584;2023-08-31T08:52:57;19.00;99.90
38209;DHT22;24016;52.102;11.584;2023-08-31T08:55:23;19.40;99.90
38209;DHT22;24016;52.102;11.584;2023-08-31T08:57:49;19.50;99.90
38209;DHT22;24016;52.102;11.584;2023-08-31T09:00:14;19.60;99.90
38209;DHT22;24016;52.102;11.584;2023-08-31T09:02:41;19.70;99.90
38209;DHT22;24016;52.102;11.584;2023-08-31T09:05:07;20.30;99.90
38209;DHT22;24016;52.102;11.584;2023-08-31T09:07:35;20.40;99.90
38209;DHT22;24016;52.102;11.584;2023-08-31T09:10:04;20.70;99.90
38209;DHT22;24016;52.102;11.584;2023-08-31T09:12:30;21.00;99.90
38209;DHT22;24016;52.102;11.584;2023-08-31T09:15:03;21.00;99.90
38209;DHT22;24016;52.102;11.584;2023-08-31T09:17:42;21.20;99.90
38209;DHT22;24016;52.102;11.584;2023-08-31T09:20:10;20.50;99.90
38209;DHT22;24016;52.102;11.584;2023-08-31T09:22:36;19.50;99.90
38209;DHT22;24016;52.102;11.584;2023-08-31T09:25:01;18.70;99.90
38209;DHT22;24016;52.102;11.584;2023-08-31T09:27:29;18.30;99.90
38209;DHT22;24016;52.102;11.584;2023-08-31T09:29:56;18.50;99.90
38209;DHT22;24016;52.102;11.584;2023-08-31T09:32:22;19.20;99.90
38209;DHT22;24016;52.102;11.584;2023-08-31T09:34:47;20.10;99.90
38209;DHT22;24016;52.102;11.584;2023-08-31T09:37:15;20.20;99.90
38209;DHT22;24016;52.102;11.584;2023-08-31T09:39:41;20.80;99.90
38209;DHT22;24016;52.102;11.584;2023-08-31T09:42:07;20.50;99.90
38209;DHT22;24016;52.102;11.584;2023-08-31T09:44:33;20.30;99.90
38209;DHT22;24016;52.102;11.584;2023-08-31T09:46:59;19.80;99.90
38209;DHT22;24016;52.102;11.584;2023-08-31T09:49:25;19.80;99.90
38209;DHT22;24016;52.102;11.584;2023-08-31T09:51:52;20.10;99.90
38209;DHT22;24016;52.102;11.584;2023-08-31T09:54:19;20.40;99.90
38209;DHT22;24016;52.102;11.584;2023-08-31T09:56:47;21.10;99.90
38209;DHT22;24016;52.102;11.584;2023-08-31T09:59:15;21.40;99.90
38209;DHT22;24016;52.102;11.584;2023-08-31T10:01:42;21.60;99.90
38209;DHT22;24016;52.102;11.584;2023-08-31T10:04:08;21.80;99.90
38209;DHT22;24016;52.102;11.584;2023-08-31T10:06:39;22.40;99.90
38209;DHT22;24016;52.102;11.584;2023-08-31T10:09:04;22.30;99.90
38209;DHT22;24016;52.102;11.584;2023-08-31T10:11:31;22.60;99.90
38209;DHT22;24016;52.102;11.584;2023-08-31T10:13:58;22.00;99.90
38209;DHT22;24016;52.102;11.584;2023-08-31T10:16:27;21.20;99.90
38209;DHT22;24016;52.102;11.584;2023-08-31T10:18:54;21.10;99.90
38209;DHT22;24016;52.102;11.584;2023-08-31T10:21:19;21.50;99.90
38209;DHT22;24016;52.102;11.584;2023-08-31T10:23:48;21.80;99.90
38209;DHT22;24016;52.102;11.584;2023-08-31T10:26:30;22.00;99.90
38209;DHT22;24016;52.102;11.584;2023-08-31T10:28:57;22.10;99.90
38209;DHT22;24016;52.102;11.584;2023-08-31T10:31:27;21.80;99.90
38209;DHT22;24016;52.102;11.584;2023-08-31T10:34:04;21.80;99.90
38209;DHT22;24016;52.102;11.584;2023-08-31T10:36:41;22.50;99.90
38209;DHT22;24016;52.102;11.584;2023-08-31T10:39:18;23.10;99.90
38209;DHT22;24016;52.102;11.584;2023-08-31T10:41:55;24.20;99.90
38209;DHT22;24016;52.102;11.584;2023-08-31T10:44:22;24.70;99.90
38209;DHT22;24016;52.102;11.584;2023-08-31T10:46:49;24.60;99.90
38209;DHT22;24016;52.102;11.584;2023-08-31T10:49:17;24.20;99.90
38209;DHT22;24016;52.102;11.584;2023-08-31T10:52:19;24.10;99.90
38209;DHT22;24016;52.102;11.584;2023-08-31T10:54:45;24.10;99.90
38209;DHT22;24016;52.102;11.584;2023-08-31T10:57:11;24.10;99.90
38209;DHT22;24016;52.102;11.584;2023-08-31T11:02:37;25.30;99.90
38209;DHT22;24016;52.102;11.584;2023-08-31T11:05:11;25.60;98.90
38209;DHT22;24016;52.102;11.584;2023-08-31T11:07:44;25.20;99.90
38209;DHT22;24016;52.102;11.584;2023-08-31T11:10:28;25.20;99.90
38209;DHT22;24016;52.102;11.584;2023-08-31T11:12:55;25.30;99.90
38209;DHT22;24016;52.102;11.584;2023-08-31T11:15:24;25.20;99.90
38209;DHT22;24016;52.102;11.584;2023-08-31T11:17:52;24.70;99.90
38209;DHT22;24016;52.102;11.584;2023-08-31T11:20:18;24.80;99.90
38209;DHT22;24016;52.102;11.584;2023-08-31T11:22:46;25.00;99.90
38209;DHT22;24016;52.102;11.584;2023-08-31T11:25:13;24.10;99.80
38209;DHT22;24016;52.102;11.584;2023-08-31T11:27:39;22.70;99.90
38209;DHT22;24016;52.102;11.584;2023-08-31T11:30:15;21.20;99.90
38209;DHT22;24016;52.102;11.584;2023-08-31T11:32:49;19.90;99.90
38209;DHT22;24016;52.102;11.584;2023-08-31T11:35:15;19.10;99.90
38209;DHT22;24016;52.102;11.584;2023-08-31T11:37:44;18.70;99.90
38209;DHT22;24016;52.102;11.584;2023-08-31T11:40:11;18.10;99.90
38209;DHT22;24016;52.102;11.584;2023-08-31T11:42:37;17.90;99.90
38209;DHT22;24016;52.102;11.584;2023-08-31T11:45:03;17.60;99.90
38209;DHT22;24016;52.102;11.584;2023-08-31T11:47:31;17.40;99.90
38209;DHT22;24016;52.102;11.584;2023-08-31T11:49:58;17.30;99.90
38209;DHT22;24016;52.102;11.584;2023-08-31T11:52:24;17.20;99.90
38209;DHT22;24016;52.102;11.584;2023-08-31T11:54:53;17.10;99.90
38209;DHT22;24016;52.102;11.584;2023-08-31T11:57:18;17.00;99.90
38209;DHT22;24016;52.102;11.584;2023-08-31T11:59:44;16.80;99.90
38209;DHT22;24016;52.102;11.584;2023-08-31T12:02:09;16.10;99.90
38209;DHT22;24016;52.102;11.584;2023-08-31T12:04:42;14.40;99.90
38209;DHT22;24016;52.102;11.584;2023-08-31T12:07:12;12.90;99.90
38209;DHT22;24016;52.102;11.584;2023-08-31T12:09:41;12.00;99.90
38209;DHT22;24016;52.102;11.584;2023-08-31T12:12:10;11.70;99.90
38209;DHT22;24016;52.102;11.584;2023-08-31T12:14:37;11.50;99.90
38209;DHT22;24016;52.102;11.584;2023-08-31T12:17:07;11.60;99.90
38209;DHT22;24016;52.102;11.584;2023-08-31T12:19:35;11.70;99.90
38209;DHT22;24016;52.102;11.584;2023-08-31T12:22:01;12.50;99.90
38209;DHT22;24016;52.102;11.584;2023-08-31T12:24:27;13.60;99.90
38209;DHT22;24016;52.102;11.584;2023-08-31T12:26:52;14.60;99.90
38209;DHT22;24016;52.102;11.584;2023-08-31T12:29:22;15.80;99.90
38209;DHT22;24016;52.102;11.584;2023-08-31T12:31:48;16.00;99.90
38209;DHT22;24016;52.102;11.584;2023-08-31T12:34:14;15.70;99.90
38209;DHT22;24016;52.102;11.584;2023-08-31T12:36:40;15.50;99.90
38209;DHT22;24016;52.102;11.584;2023-08-31T12:39:07;15.60;99.90
38209;DHT22;24016;52.102;11.584;2023-08-31T12:41:35;15.80;99.90
38209;DHT22;24016;52.102;11.584;2023-08-31T12:44:02;15.70;99.90
38209;DHT22;24016;52.102;11.584;2023-08-31T12:46:29;15.40;99.90
38209;DHT22;24016;52.102;11.584;2023-08-31T12:48:54;15.00;99.90
38209;DHT22;24016;52.102;11.584;2023-08-31T12:51:20;14.60;99.90
38209;DHT22;24016;52.102;11.584;2023-08-31T12:53:45;14.40;99.90
38209;DHT22;24016;52.102;11.584;2023-08-31T12:56:12;14.10;99.90
38209;DHT22;24016;52.102;11.584;2023-08-31T12:58:38;14.10;99.90
38209;DHT22;24016;52.102;11.584;2023-08-31T13:01:04;14.10;99.90
38209;DHT22;24016;52.102;11.584;2023-08-31T13:03:30;14.00;99.90
38209;DHT22;24016;52.102;11.584;2023-08-31T13:05:55;13.90;99.90
38209;DHT22;24016;52.102;11.584;2023-08-31T13:08:21;13.70;99.90
38209;DHT22;24016;52.102;11.584;2023-08-31T13:10:53;13.50;99.90
38209;DHT22;24016;52.102;11.584;2023-08-31T13:13:19;13.40;99.90
38209;DHT22;24016;52.102;11.584;2023-08-31T13:15:48;13.20;99.90
38209;DHT22;24016;52.102;11.584;2023-08-31T13:18:14;13.10;99.90
38209;DHT22;24016;52.102;11.584;2023-08-31T13:20:40;13.00;99.90
38209;DHT22;24016;52.102;11.584;2023-08-31T13:23:06;13.00;99.90
38209;DHT22;24016;52.102;11.584;2023-08-31T13:25:32;13.00;99.90
38209;DHT22;24016;52.102;11.584;2023-08-31T13:27:58;13.00;99.90
38209;DHT22;24016;52.102;11.584;2023-08-31T13:30:23;13.00;99.90
38209;DHT22;24016;52.102;11.584;2023-08-31T13:32:49;13.10;99.90
38209;DHT22;24016;52.102;11.584;2023-08-31T13:35:15;13.50;99.90
38209;DHT22;24016;52.102;11.584;2023-08-31T13:37:41;13.80;99.90
38209;DHT22;24016;52.102;11.584;2023-08-31T13:40:07;13.90;99.90
38209;DHT22;24016;52.102;11.584;2023-08-31T13:42:35;14.00;99.90
38209;DHT22;24016;52.102;11.584;2023-08-31T13:45:05;13.90;99.90
38209;DHT22;24016;52.102;11.584;2023-08-31T13:47:32;13.80;99.90
38209;DHT22;24016;52.102;11.584;2023-08-31T13:49:57;14.00;99.90
38209;DHT22;24016;52.102;11.584;2023-08-31T13:52:23;14.70;99.90
38209;DHT22;24016;52.102;11.584;2023-08-31T13:54:50;15.20;99.90
38209;DHT22;24016;52.102;11.584;2023-08-31T13:57:21;15.60;99.90
38209;DHT22;24016;52.102;11.584;2023-08-31T13:59:47;15.80;99.90
38209;DHT22;24016;52.102;11.584;2023-08-31T14:02:12;15.90;99.90
38209;DHT22;24016;52.102;11.584;2023-08-31T14:04:38;15.90;99.90
38209;DHT22;24016;52.102;11.584;2023-08-31T14:07:03;16.00;99.90
38209;DHT22;24016;52.102;11.584;2023-08-31T14:09:29;16.10;99.90
38209;DHT22;24016;52.102;11.584;2023-08-31T14:11:55;16.10;99.90
38209;DHT22;24016;52.102;11.584;2023-08-31T14:14:22;16.20;99.90
38209;DHT22;24016;52.102;11.584;2023-08-31T14:16:49;16.20;99.90
38209;DHT22;24016;52.102;11.584;2023-08-31T14:19:17;16.10;99.90
38209;DHT22;24016;52.102;11.584;2023-08-31T14:21:44;16.10;99.90
38209;DHT22;24016;52.102;11.584;2023-08-31T14:24:10;16.00;99.90
38209;DHT22;24016;52.102;11.584;2023-08-31T14:26:36;15.90;99.90
38209;DHT22;24016;52.102;11.584;2023-08-31T14:29:04;15.70;99.90
38209;DHT22;24016;52.102;11.584;2023-08-31T14:31:30;15.60;99.90
38209;DHT22;24016;52.102;11.584;2023-08-31T14:33:55;15.80;99.90
38209;DHT22;24016;52.102;11.584;2023-08-31T14:36:21;15.90;99.90
38209;DHT22;24016;52.102;11.584;2023-08-31T14:38:47;16.00;99.90
38209;DHT22;24016;52.102;11.584;2023-08-31T14:41:12;16.00;99.90
38209;DHT22;24016;52.102;11.584;2023-08-31T14:43:41;16.00;99.90
38209;DHT22;24016;52.102;11.584;2023-08-31T14:46:07;15.90;99.90
38209;DHT22;24016;52.102;11.584;2023-08-31T14:48:32;15.80;99.90
38209;DHT22;24016;52.102;11.584;2023-08-31T14:50:58;15.70;99.90
38209;DHT22;24016;52.102;11.584;2023-08-31T14:53:24;15.70;99.90
38209;DHT22;24016;52.102;11.584;2023-08-31T14:55:50;15.70;99.90
38209;DHT22;24016;52.102;11.584;2023-08-31T14:58:16;15.80;99.90
38209;DHT22;24016;52.102;11.584;2023-08-31T15:00:42;15.80;99.90
38209;DHT22;24016;52.102;11.584;2023-08-31T15:03:07;15.80;99.90
38209;DHT22;24016;52.102;11.584;2023-08-31T15:05:34;15.80;99.90
38209;DHT22;24016;52.102;11.584;2023-08-31T15:08:00;15.90;99.90
38209;DHT22;24016;52.102;11.584;2023-08-31T15:10:27;15.90;99.90
38209;DHT22;24016;52.102;11.584;2023-08-31T15:12:53;15.90;99.90
38209;DHT22;24016;52.102;11.584;2023-08-31T15:15:23;16.00;99.90
38209;DHT22;24016;52.102;11.584;2023-08-31T15:17:49;16.10;99.90
38209;DHT22;24016;52.102;11.584;2023-08-31T15:20:14;16.10;99.90
38209;DHT22;24016;52.102;11.584;2023-08-31T15:22:40;16.10;99.90
38209;DHT22;24016;52.102;11.584;2023-08-31T15:25:06;16.10;99.90